Time;durP1;ratioP1;P1;durP2;ratioP2;P2;SDS_P1;SDS_P2;PMS_P1;PMS_P2;Temp;Humidity;BMP_temperature;BMP_pressure;BME280_temperature;BME280_humidity;BME280_pressure;Samples;Min_cycle;Max_cycle;Signal;HPM_P1;HPM_P2
2022/08/12 00:43:37;;;;;;;5.03;4.63;;;;;;;;;;5092020;28;20423;-75
2022/08/12 00:48:49;;;;;;;5.17;4.73;;;;;;;;;;5092329;28;20412;-76
2022/08/12 00:51:18;;;;;;;4.73;4.33;;;;;;;;;;5092221;28;20440;-76
2022/08/12 00:53:45;;;;;;;5.03;4.53;;;;;;;;;;5091904;28;20440;-76
2022/08/12 00:56:12;;;;;;;4.97;4.47;;;;;;;;;;5092012;28;20479;-75
2022/08/12 00:58:39;;;;;;;4.60;4.30;;;;;;;;;;5092111;28;20939;-76
2022/08/12 01:01:07;;;;;;;4.20;3.90;;;;;;;;;;5092143;28;20451;-74
2022/08/12 01:11:49;;;;;;;5.93;4.20;;;;;;;;;;5072116;28;20494;-75
2022/08/12 01:14:18;;;;;;;4.20;3.80;;;;;;;;;;5071321;28;20513;-74
2022/08/12 01:16:46;;;;;;;4.57;4.20;;;;;;;;;;5071114;28;20440;-75
2022/08/12 01:19:14;;;;;;;4.47;4.10;;;;;;;;;;5071752;28;20477;-75
2022/08/12 01:21:50;;;;;;;5.50;4.30;;;;;;;;;;5071979;28;20468;-76
2022/08/12 01:24:22;;;;;;;5.57;3.80;;;;;;;;;;5071527;28;20445;-77
2022/08/12 01:26:51;;;;;;;4.27;3.97;;;;;;;;;;5072328;28;20436;-76
2022/08/12 01:29:21;;;;;;;4.30;4.00;;;;;;;;;;5071552;28;20840;-76
2022/08/12 01:31:50;;;;;;;5.03;4.33;;;;;;;;;;5072012;28;20449;-76
2022/08/12 01:34:23;;;;;;;4.40;4.10;;;;;;;;;;5071349;28;20490;-75
2022/08/12 01:36:53;;;;;;;5.73;4.43;;;;;;;;;;5071539;28;20432;-76
2022/08/12 01:39:22;;;;;;;4.70;4.30;;;;;;;;;;5071511;28;20476;-75
2022/08/12 01:41:53;;;;;;;5.40;4.47;;;;;;;;;;5071224;28;20445;-75
2022/08/12 01:44:20;;;;;;;5.20;4.00;;;;;;;;;;5071407;28;20452;-76
2022/08/12 01:46:53;;;;;;;4.37;3.97;;;;;;;;;;5076210;28;20878;-76
2022/08/12 01:49:36;;;;;;;4.27;3.97;;;;;;;;;;5077457;28;20494;-76
2022/08/12 01:52:05;;;;;;;4.10;3.73;;;;;;;;;;5071791;28;20441;-76
2022/08/12 01:54:37;;;;;;;4.53;4.13;;;;;;;;;;5071365;28;20886;-77
2022/08/12 01:57:09;;;;;;;4.40;4.00;;;;;;;;;;5071835;28;20488;-76
2022/08/12 01:59:48;;;;;;;4.27;3.97;;;;;;;;;;5071841;28;20429;-75
2022/08/12 02:02:17;;;;;;;4.63;4.23;;;;;;;;;;5071706;28;21025;-75
2022/08/12 02:13:23;;;;;;;4.47;4.17;;;;;;;;;;5072900;28;20458;-75
2022/08/12 02:15:57;;;;;;;4.20;3.90;;;;;;;;;;5072510;28;20492;-75
2022/08/12 02:18:27;;;;;;;4.07;3.73;;;;;;;;;;5071432;28;20446;-76
2022/08/12 02:20:59;;;;;;;4.17;3.83;;;;;;;;;;5071697;28;20433;-75
2022/08/12 02:23:27;;;;;;;4.50;4.10;;;;;;;;;;5071309;28;20437;-76
2022/08/12 02:25:56;;;;;;;3.97;3.67;;;;;;;;;;5071227;28;20457;-77
2022/08/12 02:28:24;;;;;;;4.40;4.10;;;;;;;;;;5074019;28;20445;-75
2022/08/12 02:30:52;;;;;;;4.60;4.20;;;;;;;;;;5075012;28;20444;-75
2022/08/12 02:33:20;;;;;;;4.00;3.70;;;;;;;;;;5074805;28;20497;-76
2022/08/12 02:35:47;;;;;;;3.97;3.67;;;;;;;;;;5074923;28;20530;-75
2022/08/12 02:38:14;;;;;;;4.07;3.87;;;;;;;;;;5074558;28;20846;-76
2022/08/12 02:40:44;;;;;;;4.60;4.03;;;;;;;;;;5075352;28;20437;-76
2022/08/12 02:43:12;;;;;;;3.90;3.70;;;;;;;;;;5074699;28;20486;-74
2022/08/12 02:45:44;;;;;;;3.60;3.40;;;;;;;;;;5074680;28;20460;-76
2022/08/12 02:48:14;;;;;;;3.80;3.60;;;;;;;;;;5074628;28;20806;-77
2022/08/12 02:50:45;;;;;;;3.80;3.53;;;;;;;;;;5074199;28;20532;-75
2022/08/12 02:53:12;;;;;;;4.53;3.63;;;;;;;;;;5073921;28;21001;-76
2022/08/12 02:55:39;;;;;;;4.10;3.40;;;;;;;;;;5074216;28;20472;-75
2022/08/12 02:58:08;;;;;;;3.73;3.47;;;;;;;;;;5074746;28;20441;-76
2022/08/12 03:00:35;;;;;;;6.13;3.67;;;;;;;;;;5074331;28;20472;-75
2022/08/12 03:03:05;;;;;;;4.60;3.97;;;;;;;;;;5073795;28;20471;-76
2022/08/12 03:05:34;;;;;;;5.60;4.00;;;;;;;;;;5074519;28;20469;-76
2022/08/12 03:08:03;;;;;;;4.30;3.90;;;;;;;;;;5074268;28;20455;-75
2022/08/12 03:10:32;;;;;;;3.70;3.50;;;;;;;;;;5083436;28;20470;-75
2022/08/12 03:13:00;;;;;;;3.80;3.50;;;;;;;;;;5094040;28;20439;-75
2022/08/12 03:15:27;;;;;;;4.03;3.67;;;;;;;;;;5093953;28;20479;-75
2022/08/12 03:17:56;;;;;;;3.77;3.57;;;;;;;;;;5094422;28;20443;-75
2022/08/12 03:20:24;;;;;;;3.20;3.00;;;;;;;;;;5094196;28;20508;-76
2022/08/12 03:22:52;;;;;;;3.87;3.57;;;;;;;;;;5093774;28;20970;-75
2022/08/12 03:25:23;;;;;;;4.20;3.90;;;;;;;;;;5093702;28;20460;-76
2022/08/12 03:27:54;;;;;;;4.00;3.63;;;;;;;;;;5093705;28;20448;-75
2022/08/12 03:30:22;;;;;;;3.87;3.67;;;;;;;;;;5094408;28;20443;-75
2022/08/12 03:32:50;;;;;;;4.07;3.77;;;;;;;;;;5096785;28;20463;-74
2022/08/12 03:35:21;;;;;;;4.40;3.73;;;;;;;;;;5105668;28;20479;-75
2022/08/12 03:37:50;;;;;;;4.30;3.80;;;;;;;;;;5105245;28;20451;-76
2022/08/12 04:02:16;;;;;;;6.03;4.13;;;;;;;;;;5092125;28;20560;-76
2022/08/12 04:04:44;;;;;;;4.50;4.20;;;;;;;;;;5083687;28;20472;-75
2022/08/12 04:07:11;;;;;;;4.20;4.00;;;;;;;;;;5092699;28;20443;-75
2022/08/12 04:09:42;;;;;;;4.40;4.10;;;;;;;;;;5092949;28;20447;-76
2022/08/12 04:14:55;;;;;;;4.87;4.07;;;;;;;;;;5092826;28;20804;-75
2022/08/12 04:17:23;;;;;;;4.30;4.00;;;;;;;;;;5084675;28;20471;-75
2022/08/12 04:19:50;;;;;;;4.17;3.63;;;;;;;;;;5092672;28;20443;-75
2022/08/12 04:22:17;;;;;;;4.20;3.90;;;;;;;;;;5092465;28;20497;-75
2022/08/12 04:24:45;;;;;;;4.50;4.13;;;;;;;;;;5092753;28;20464;-76
2022/08/12 04:27:13;;;;;;;4.37;4.07;;;;;;;;;;5093158;28;20432;-76
2022/08/12 04:29:40;;;;;;;4.87;4.43;;;;;;;;;;5090457;28;20443;-76
2022/08/12 04:32:08;;;;;;;4.37;4.00;;;;;;;;;;5088696;28;20448;-75
2022/08/12 04:34:38;;;;;;;5.17;4.67;;;;;;;;;;5091572;28;20468;-75
2022/08/12 04:37:05;;;;;;;4.53;4.13;;;;;;;;;;5092268;28;20482;-75
2022/08/12 04:39:32;;;;;;;6.20;4.23;;;;;;;;;;5092200;28;20501;-77
2022/08/12 04:42:01;;;;;;;4.53;4.13;;;;;;;;;;5092323;28;20504;-75
2022/08/12 04:44:28;;;;;;;4.67;4.23;;;;;;;;;;5091795;28;20513;-74
2022/08/12 04:46:55;;;;;;;5.57;4.30;;;;;;;;;;5092195;28;20501;-75
2022/08/12 04:49:23;;;;;;;9.60;7.63;;;;;;;;;;5092093;28;20471;-75
2022/08/12 04:51:50;;;;;;;7.70;4.50;;;;;;;;;;5091827;28;20447;-76
2022/08/12 04:54:17;;;;;;;6.20;4.77;;;;;;;;;;5091684;28;20446;-76
2022/08/12 04:56:44;;;;;;;6.07;4.50;;;;;;;;;;5093052;28;20475;-76
2022/08/12 04:59:15;;;;;;;7.27;4.40;;;;;;;;;;5093491;28;20444;-74
2022/08/12 05:01:42;;;;;;;5.73;4.50;;;;;;;;;;5091768;28;20443;-75
2022/08/12 05:04:10;;;;;;;4.37;3.97;;;;;;;;;;5091298;28;20988;-74
2022/08/12 05:06:37;;;;;;;4.40;4.00;;;;;;;;;;5091595;28;20451;-76
2022/08/12 05:09:04;;;;;;;3.40;3.20;;;;;;;;;;5091866;28;20435;-75
2022/08/12 05:11:31;;;;;;;4.03;3.63;;;;;;;;;;5091542;28;20448;-76
2022/08/12 05:13:59;;;;;;;5.03;4.57;;;;;;;;;;5091101;28;20455;-75
2022/08/12 05:16:29;;;;;;;8.70;4.60;;;;;;;;;;5091903;28;20907;-75
2022/08/12 05:18:57;;;;;;;4.60;4.30;;;;;;;;;;5098337;28;20959;-75
2022/08/12 05:21:25;;;;;;;4.33;4.00;;;;;;;;;;5096475;28;20947;-74
2022/08/12 05:23:53;;;;;;;4.17;3.87;;;;;;;;;;5091309;28;20647;-75
2022/08/12 05:26:21;;;;;;;5.77;4.00;;;;;;;;;;5092069;28;20460;-76
2022/08/12 05:28:48;;;;;;;4.20;3.80;;;;;;;;;;5084261;28;20959;-77
2022/08/12 05:31:17;;;;;;;4.40;4.00;;;;;;;;;;5098100;28;20512;-75
2022/08/12 05:33:46;;;;;;;7.07;4.67;;;;;;;;;;5090936;28;20461;-77
2022/08/12 05:36:14;;;;;;;5.53;3.97;;;;;;;;;;5091084;28;21059;-74
2022/08/12 05:38:57;;;;;;;5.90;4.40;;;;;;;;;;5091620;28;20443;-76
2022/08/12 05:41:24;;;;;;;5.67;4.33;;;;;;;;;;5091098;28;20456;-74
2022/08/12 05:43:52;;;;;;;6.27;4.20;;;;;;;;;;5091180;28;20450;-74
2022/08/12 05:46:19;;;;;;;4.63;4.33;;;;;;;;;;5091526;28;20509;-75
2022/08/12 05:48:48;;;;;;;9.20;4.17;;;;;;;;;;5091552;28;20442;-75
2022/08/12 05:51:15;;;;;;;6.07;4.80;;;;;;;;;;5091117;28;20471;-75
2022/08/12 05:53:43;;;;;;;4.07;3.73;;;;;;;;;;5091309;28;20795;-77
2022/08/12 05:56:19;;;;;;;4.77;4.37;;;;;;;;;;5090959;28;20475;-75
2022/08/12 05:58:46;;;;;;;4.30;4.00;;;;;;;;;;5091779;28;20492;-76
2022/08/12 06:01:13;;;;;;;4.50;4.10;;;;;;;;;;5091662;28;20451;-76
2022/08/12 06:03:40;;;;;;;4.90;4.40;;;;;;;;;;5094383;28;21018;-76
2022/08/12 06:06:09;;;;;;;5.57;4.20;;;;;;;;;;5095124;28;20967;-76
2022/08/12 06:08:36;;;;;;;4.10;3.80;;;;;;;;;;5095202;28;20458;-76
2022/08/12 06:11:04;;;;;;;6.60;4.43;;;;;;;;;;5095884;28;20452;-77
2022/08/12 06:13:37;;;;;;;5.30;4.33;;;;;;;;;;5095576;28;20447;-76
2022/08/12 06:16:05;;;;;;;5.20;4.10;;;;;;;;;;5098516;28;20479;-75
2022/08/12 06:18:32;;;;;;;4.80;3.97;;;;;;;;;;5097089;28;20832;-76
2022/08/12 06:20:59;;;;;;;4.93;4.50;;;;;;;;;;5099872;28;20542;-76
2022/08/12 06:23:28;;;;;;;4.00;3.70;;;;;;;;;;5102749;28;20452;-75
2022/08/12 06:25:55;;;;;;;8.20;4.57;;;;;;;;;;5103342;28;20463;-76
2022/08/12 06:28:22;;;;;;;4.03;3.73;;;;;;;;;;5101052;28;20526;-75
2022/08/12 06:30:50;;;;;;;7.70;4.80;;;;;;;;;;5092121;28;20439;-75
2022/08/12 06:33:18;;;;;;;4.13;3.80;;;;;;;;;;5100491;28;20499;-76
2022/08/12 06:35:45;;;;;;;4.10;3.80;;;;;;;;;;5101581;28;20589;-76
2022/08/12 06:38:16;;;;;;;5.93;3.90;;;;;;;;;;5101034;28;20540;-76
2022/08/12 06:43:30;;;;;;;6.37;4.17;;;;;;;;;;5094538;28;20418;-76
2022/08/12 06:45:57;;;;;;;5.13;4.13;;;;;;;;;;5094481;28;20505;-76
2022/08/12 06:48:25;;;;;;;4.03;3.60;;;;;;;;;;5094611;28;21056;-76
2022/08/12 06:50:52;;;;;;;4.03;3.73;;;;;;;;;;5094629;28;20489;-76
2022/08/12 06:53:19;;;;;;;4.13;3.73;;;;;;;;;;5094307;28;20492;-76
2022/08/12 06:55:48;;;;;;;4.33;3.80;;;;;;;;;;5094576;28;20463;-77
2022/08/12 06:58:15;;;;;;;3.80;3.50;;;;;;;;;;5094000;28;20990;-75
2022/08/12 07:00:45;;;;;;;4.30;4.00;;;;;;;;;;5093940;28;20514;-75
2022/08/12 07:03:16;;;;;;;3.83;3.53;;;;;;;;;;5094096;28;20449;-75
2022/08/12 07:05:43;;;;;;;4.10;3.73;;;;;;;;;;5094372;28;20463;-76
2022/08/12 07:08:11;;;;;;;4.27;3.97;;;;;;;;;;5094067;28;20459;-75
2022/08/12 07:10:42;;;;;;;4.13;3.40;;;;;;;;;;5091286;28;20498;-75
2022/08/12 07:13:10;;;;;;;3.97;3.67;;;;;;;;;;5092430;28;20440;-75
2022/08/12 07:15:38;;;;;;;3.40;3.10;;;;;;;;;;5093363;28;20463;-75
2022/08/12 07:18:08;;;;;;;3.63;3.43;;;;;;;;;;5093936;28;20819;-76
2022/08/12 07:20:35;;;;;;;5.17;4.60;;;;;;;;;;5093906;28;20451;-76
2022/08/12 07:23:04;;;;;;;6.33;3.80;;;;;;;;;;5093674;28;20447;-75
2022/08/12 07:25:31;;;;;;;3.80;3.60;;;;;;;;;;5093789;28;20467;-76
2022/08/12 07:28:00;;;;;;;3.80;3.47;;;;;;;;;;5093874;28;20530;-75
2022/08/12 07:30:29;;;;;;;4.40;3.90;;;;;;;;;;5093745;28;20443;-75
2022/08/12 07:32:56;;;;;;;4.00;3.70;;;;;;;;;;5093670;28;20509;-75
2022/08/12 07:35:23;;;;;;;4.10;3.50;;;;;;;;;;5093613;28;20459;-75
2022/08/12 07:37:52;;;;;;;3.80;3.50;;;;;;;;;;5093118;28;21017;-77
2022/08/12 07:40:19;;;;;;;3.97;3.20;;;;;;;;;;5093186;28;20451;-74
2022/08/12 07:42:46;;;;;;;4.27;3.30;;;;;;;;;;5093365;28;20439;-75
2022/08/12 07:45:13;;;;;;;3.40;3.20;;;;;;;;;;5086365;28;20556;-75
2022/08/12 07:47:42;;;;;;;3.70;3.30;;;;;;;;;;5093264;28;20451;-76
2022/08/12 07:50:10;;;;;;;4.10;3.80;;;;;;;;;;5093362;28;20939;-76
2022/08/12 07:52:37;;;;;;;3.80;3.53;;;;;;;;;;5092673;28;20436;-75
2022/08/12 07:55:05;;;;;;;5.30;4.00;;;;;;;;;;5093241;28;20558;-74
2022/08/12 07:57:33;;;;;;;6.00;2.93;;;;;;;;;;5093021;28;20476;-77
2022/08/12 08:00:03;;;;;;;4.00;3.50;;;;;;;;;;5093148;28;20466;-76
2022/08/12 08:02:32;;;;;;;4.50;3.33;;;;;;;;;;5093433;28;20440;-74
2022/08/12 08:05:00;;;;;;;3.30;3.10;;;;;;;;;;5094645;28;20467;-75
2022/08/12 08:07:29;;;;;;;4.87;4.03;;;;;;;;;;5094614;28;20494;-75
2022/08/12 08:09:57;;;;;;;3.20;3.00;;;;;;;;;;5095388;28;20504;-74
2022/08/12 08:15:09;;;;;;;7.00;3.43;;;;;;;;;;5092737;28;20446;-76
2022/08/12 08:17:37;;;;;;;3.47;3.17;;;;;;;;;;5092676;28;20482;-74
2022/08/12 08:20:06;;;;;;;5.40;3.63;;;;;;;;;;5093029;28;20458;-76
2022/08/12 08:22:37;;;;;;;3.90;2.63;;;;;;;;;;5093024;28;20450;-75
2022/08/12 08:25:05;;;;;;;3.60;3.17;;;;;;;;;;5093048;28;20468;-76
2022/08/12 08:27:44;;;;;;;5.13;3.30;;;;;;;;;;5094231;28;20440;-77
2022/08/12 08:30:11;;;;;;;6.57;2.90;;;;;;;;;;5094555;28;20455;-77
2022/08/12 08:32:39;;;;;;;3.13;2.97;;;;;;;;;;5094097;28;20547;-77
2022/08/12 08:35:10;;;;;;;3.50;3.30;;;;;;;;;;5094538;28;20467;-76
2022/08/12 08:37:37;;;;;;;2.97;2.73;;;;;;;;;;5094375;28;20475;-75
2022/08/12 08:42:47;;;;;;;4.20;3.13;;;;;;;;;;5094622;28;20405;-77
2022/08/12 08:45:14;;;;;;;4.97;2.57;;;;;;;;;;5093083;28;20475;-76
2022/08/12 08:47:45;;;;;;;5.10;2.63;;;;;;;;;;5093256;28;20471;-77
2022/08/12 08:50:14;;;;;;;2.70;2.50;;;;;;;;;;5093165;28;20451;-76
2022/08/12 08:52:42;;;;;;;2.40;2.30;;;;;;;;;;5093277;28;21014;-76
2022/08/12 08:55:10;;;;;;;2.70;2.50;;;;;;;;;;5094064;28;20470;-76
2022/08/12 08:57:37;;;;;;;3.73;2.67;;;;;;;;;;5093740;28;20482;-77
2022/08/12 09:00:05;;;;;;;5.47;2.70;;;;;;;;;;5092573;28;20931;-77
2022/08/12 09:02:32;;;;;;;2.83;2.63;;;;;;;;;;5093391;28;20447;-76
2022/08/12 09:04:59;;;;;;;2.83;2.63;;;;;;;;;;5091556;28;20889;-76
2022/08/12 09:07:29;;;;;;;2.53;2.30;;;;;;;;;;5092445;28;20502;-78
2022/08/12 09:09:56;;;;;;;3.33;3.03;;;;;;;;;;5093379;28;20432;-76
2022/08/12 09:15:08;;;;;;;2.43;2.27;;;;;;;;;;5093722;28;20432;-78
2022/08/12 09:17:37;;;;;;;3.07;2.37;;;;;;;;;;5092867;28;20483;-77
2022/08/12 09:20:04;;;;;;;3.30;3.00;;;;;;;;;;5092161;28;20479;-77
2022/08/12 09:22:32;;;;;;;2.60;2.33;;;;;;;;;;5092054;28;20443;-77
2022/08/12 09:24:59;;;;;;;3.33;1.93;;;;;;;;;;5092625;28;20459;-78
2022/08/12 09:27:26;;;;;;;3.87;2.20;;;;;;;;;;5092027;28;20436;-77
2022/08/12 09:29:53;;;;;;;3.40;2.57;;;;;;;;;;5092070;28;20447;-77
2022/08/12 09:32:20;;;;;;;2.27;2.07;;;;;;;;;;5092771;28;20489;-77
2022/08/12 09:34:47;;;;;;;1.97;1.87;;;;;;;;;;5089106;28;20827;-78
2022/08/12 09:37:14;;;;;;;2.70;2.23;;;;;;;;;;5089757;28;20471;-77
2022/08/12 09:39:43;;;;;;;2.30;2.20;;;;;;;;;;5072072;28;20451;-78
2022/08/12 09:45:22;;;;;;;2.13;2.03;;;;;;;;;;5055624;28;20501;-78
2022/08/12 09:47:49;;;;;;;2.70;2.37;;;;;;;;;;5092595;28;20503;-77
2022/08/12 09:50:16;;;;;;;2.53;2.30;;;;;;;;;;5091723;28;20440;-78
2022/08/12 09:52:44;;;;;;;2.83;2.60;;;;;;;;;;5091155;28;20439;-78
2022/08/12 09:55:13;;;;;;;2.33;2.23;;;;;;;;;;5091113;28;20524;-77
2022/08/12 09:57:40;;;;;;;2.50;2.30;;;;;;;;;;5091196;28;20570;-77
2022/08/12 10:00:09;;;;;;;4.63;2.60;;;;;;;;;;5083712;28;20447;-77
2022/08/12 10:02:37;;;;;;;2.40;2.20;;;;;;;;;;5085448;28;20497;-76
2022/08/12 10:05:04;;;;;;;2.37;1.80;;;;;;;;;;5091738;28;20459;-78
2022/08/12 10:07:32;;;;;;;3.20;2.00;;;;;;;;;;5091522;28;20784;-78
2022/08/12 10:09:59;;;;;;;2.50;2.13;;;;;;;;;;5091263;28;20439;-77
2022/08/12 10:15:13;;;;;;;1.97;1.87;;;;;;;;;;5091515;28;20514;-78
2022/08/12 10:17:40;;;;;;;2.47;2.27;;;;;;;;;;5091941;28;20922;-77
2022/08/12 10:20:08;;;;;;;2.00;1.80;;;;;;;;;;5091681;28;20454;-77
2022/08/12 10:22:38;;;;;;;2.57;2.10;;;;;;;;;;5091556;28;20443;-78
2022/08/12 10:30:36;;;;;;;5.37;4.87;;;;;;;;;;5093589;28;20887;-77
2022/08/12 10:33:04;;;;;;;2.63;2.40;;;;;;;;;;5103868;28;20435;-76
2022/08/12 10:35:31;;;;;;;2.13;2.03;;;;;;;;;;5092991;28;20468;-77
2022/08/12 10:38:01;;;;;;;2.20;2.10;;;;;;;;;;5091899;28;20464;-75
2022/08/12 10:40:30;;;;;;;2.63;2.30;;;;;;;;;;5092784;28;20440;-76
2022/08/12 10:45:43;;;;;;;1.93;1.83;;;;;;;;;;5089962;28;21023;-77
2022/08/12 10:48:10;;;;;;;2.70;1.80;;;;;;;;;;5090830;28;20492;-77
2022/08/12 10:50:37;;;;;;;4.00;2.23;;;;;;;;;;5093679;28;20436;-76
2022/08/12 10:53:07;;;;;;;2.97;2.77;;;;;;;;;;5093625;28;20501;-76
2022/08/12 10:55:34;;;;;;;2.50;2.30;;;;;;;;;;5094900;28;20517;-77
2022/08/12 10:58:03;;;;;;;2.20;2.00;;;;;;;;;;5094589;28;20513;-76
2022/08/12 11:00:32;;;;;;;2.30;2.20;;;;;;;;;;5094367;28;20954;-77
2022/08/12 11:02:59;;;;;;;2.33;2.13;;;;;;;;;;5093453;28;20451;-77
2022/08/12 11:05:26;;;;;;;3.53;2.30;;;;;;;;;;5093886;28;20464;-76
2022/08/12 11:07:54;;;;;;;2.30;2.20;;;;;;;;;;5093468;28;20539;-77
2022/08/12 11:10:32;;;;;;;2.00;1.90;;;;;;;;;;5094166;28;20811;-77
2022/08/12 11:12:59;;;;;;;2.50;2.30;;;;;;;;;;5095420;28;20477;-76
2022/08/12 11:15:31;;;;;;;2.20;1.77;;;;;;;;;;5100473;28;20891;-77
2022/08/12 11:18:01;;;;;;;2.00;1.90;;;;;;;;;;5099260;28;21002;-76
2022/08/12 11:20:28;;;;;;;1.77;1.67;;;;;;;;;;5093747;28;20436;-75
2022/08/12 11:22:56;;;;;;;2.27;2.00;;;;;;;;;;5092857;28;20455;-77
2022/08/12 11:25:23;;;;;;;2.60;2.40;;;;;;;;;;5093065;28;20538;-77
2022/08/12 11:27:50;;;;;;;4.53;2.10;;;;;;;;;;5093389;28;20968;-77
2022/08/12 11:30:17;;;;;;;1.80;1.70;;;;;;;;;;5093325;28;20424;-76
2022/08/12 11:32:45;;;;;;;1.80;1.70;;;;;;;;;;5092470;28;20952;-76
2022/08/12 11:35:12;;;;;;;1.97;1.87;;;;;;;;;;5092860;28;20471;-76
2022/08/12 11:37:40;;;;;;;1.83;1.73;;;;;;;;;;5095978;28;20472;-75
2022/08/12 11:40:07;;;;;;;1.63;1.60;;;;;;;;;;5096452;28;20526;-76
2022/08/12 11:42:35;;;;;;;2.60;1.90;;;;;;;;;;5092848;28;20947;-75
2022/08/12 11:45:02;;;;;;;2.00;1.80;;;;;;;;;;5092738;28;20559;-78
2022/08/12 11:47:29;;;;;;;2.00;1.90;;;;;;;;;;5092383;28;20497;-77
2022/08/12 11:49:57;;;;;;;1.87;1.77;;;;;;;;;;5092495;28;20883;-77
2022/08/12 11:52:24;;;;;;;4.50;1.93;;;;;;;;;;5092392;28;20443;-77
2022/08/12 11:54:51;;;;;;;2.60;1.80;;;;;;;;;;5092388;28;20463;-77
2022/08/12 11:57:19;;;;;;;1.97;1.87;;;;;;;;;;5092525;28;20497;-77
2022/08/12 11:59:46;;;;;;;2.00;1.90;;;;;;;;;;5091971;28;20487;-77
2022/08/12 12:02:13;;;;;;;1.70;1.60;;;;;;;;;;5092057;28;20451;-78
2022/08/12 12:04:40;;;;;;;1.80;1.70;;;;;;;;;;5091922;28;20505;-77
2022/08/12 12:07:08;;;;;;;1.60;1.50;;;;;;;;;;5092091;28;20968;-77
2022/08/12 12:09:35;;;;;;;2.00;1.90;;;;;;;;;;5092111;28;20436;-78
2022/08/12 12:12:03;;;;;;;3.27;1.63;;;;;;;;;;5091959;28;20531;-76
2022/08/12 12:14:30;;;;;;;2.10;1.90;;;;;;;;;;5091444;28;20444;-77
2022/08/12 12:16:58;;;;;;;4.57;2.00;;;;;;;;;;5089459;28;20447;-77
2022/08/12 12:19:25;;;;;;;2.57;1.90;;;;;;;;;;5086863;28;21168;-77
2022/08/12 12:21:52;;;;;;;3.93;1.53;;;;;;;;;;5089430;28;20439;-77
2022/08/12 12:24:21;;;;;;;2.57;1.90;;;;;;;;;;5074578;28;20494;-77
2022/08/12 12:26:48;;;;;;;1.73;1.63;;;;;;;;;;5083335;28;20958;-77
2022/08/12 12:29:15;;;;;;;2.00;1.90;;;;;;;;;;5112722;27;20436;-78
2022/08/12 12:31:42;;;;;;;3.23;2.40;;;;;;;;;;5112287;28;20434;-77
2022/08/12 12:34:09;;;;;;;1.73;1.63;;;;;;;;;;5096225;28;20443;-77
2022/08/12 12:36:36;;;;;;;4.93;1.97;;;;;;;;;;5091663;28;20493;-77
2022/08/12 12:39:03;;;;;;;3.73;1.77;;;;;;;;;;5091503;28;20870;-76
2022/08/12 12:41:31;;;;;;;1.80;1.70;;;;;;;;;;5091654;28;20524;-76
2022/08/12 12:43:59;;;;;;;2.20;1.80;;;;;;;;;;5091327;28;20516;-77
2022/08/12 12:46:26;;;;;;;1.67;1.40;;;;;;;;;;5091435;28;20455;-77
2022/08/12 12:48:53;;;;;;;2.40;1.83;;;;;;;;;;5091431;28;20444;-78
2022/08/12 12:51:20;;;;;;;1.80;1.70;;;;;;;;;;5087098;28;20448;-77
2022/08/12 12:53:48;;;;;;;2.77;1.90;;;;;;;;;;5091013;28;20442;-76
2022/08/12 12:56:16;;;;;;;2.77;2.50;;;;;;;;;;5090837;28;20456;-77
2022/08/12 12:58:48;;;;;;;2.63;1.80;;;;;;;;;;5089955;28;20475;-76
2022/08/12 13:01:17;;;;;;;2.10;2.00;;;;;;;;;;5090499;28;20538;-77
2022/08/12 13:03:44;;;;;;;1.60;1.60;;;;;;;;;;5090090;28;20436;-77
2022/08/12 13:06:11;;;;;;;1.90;1.80;;;;;;;;;;5090076;28;20490;-77
2022/08/12 13:08:39;;;;;;;1.90;1.60;;;;;;;;;;5090092;28;20440;-77
2022/08/12 13:11:06;;;;;;;2.30;2.00;;;;;;;;;;5089922;28;20462;-76
2022/08/12 13:13:35;;;;;;;2.50;2.07;;;;;;;;;;5089150;28;20931;-77
2022/08/12 13:16:06;;;;;;;2.40;1.90;;;;;;;;;;5090452;28;20470;-77
2022/08/12 13:18:36;;;;;;;2.13;2.00;;;;;;;;;;5089923;28;20479;-76
2022/08/12 13:21:03;;;;;;;2.23;1.70;;;;;;;;;;5090301;28;20443;-78
2022/08/12 13:23:30;;;;;;;2.67;1.80;;;;;;;;;;5089914;28;20450;-78
2022/08/12 13:25:58;;;;;;;1.87;1.50;;;;;;;;;;5087268;28;20478;-76
2022/08/12 13:28:27;;;;;;;1.93;1.83;;;;;;;;;;5093890;28;20466;-77
2022/08/12 13:30:56;;;;;;;1.73;1.63;;;;;;;;;;5082919;28;20448;-77
2022/08/12 13:33:25;;;;;;;1.90;1.63;;;;;;;;;;5085405;28;20534;-78
2022/08/12 13:35:53;;;;;;;4.13;1.87;;;;;;;;;;5090101;28;20483;-78
2022/08/12 13:38:22;;;;;;;2.17;1.90;;;;;;;;;;5084246;28;20541;-78
2022/08/12 13:40:49;;;;;;;1.77;1.67;;;;;;;;;;5086578;28;20545;-77
2022/08/12 13:43:16;;;;;;;1.90;1.80;;;;;;;;;;5085141;28;21032;-77
2022/08/12 13:45:43;;;;;;;2.37;1.90;;;;;;;;;;5089269;28;20459;-78
2022/08/12 13:48:10;;;;;;;1.87;1.80;;;;;;;;;;5089486;28;20496;-78
2022/08/12 13:50:39;;;;;;;2.27;1.80;;;;;;;;;;5079345;28;20449;-77
2022/08/12 13:53:08;;;;;;;2.37;1.90;;;;;;;;;;5089359;28;20501;-79
2022/08/12 13:55:36;;;;;;;1.93;1.83;;;;;;;;;;5090264;28;20460;-77
2022/08/12 13:58:04;;;;;;;1.93;1.83;;;;;;;;;;5077071;28;20451;-78
2022/08/12 14:00:31;;;;;;;2.10;1.90;;;;;;;;;;5088472;28;20484;-79
2022/08/12 14:02:58;;;;;;;1.80;1.70;;;;;;;;;;5084435;28;20546;-78
2022/08/12 14:05:26;;;;;;;3.37;1.97;;;;;;;;;;5090344;28;20471;-78
2022/08/12 14:07:58;;;;;;;3.10;1.87;;;;;;;;;;5090444;28;20456;-79
2022/08/12 14:13:15;;;;;;;2.90;1.67;;;;;;;;;;5086257;28;20916;-77
2022/08/12 14:15:43;;;;;;;3.53;1.67;;;;;;;;;;5092997;28;20471;-78
2022/08/12 14:18:11;;;;;;;1.80;1.70;;;;;;;;;;5091296;28;20444;-78
2022/08/12 14:20:39;;;;;;;2.70;1.90;;;;;;;;;;5089321;28;20435;-79
2022/08/12 14:23:07;;;;;;;2.37;2.10;;;;;;;;;;5087062;28;20509;-78
2022/08/12 14:25:35;;;;;;;1.97;1.77;;;;;;;;;;5090260;28;20508;-78
2022/08/12 14:28:10;;;;;;;2.60;1.77;;;;;;;;;;5087794;28;20443;-78
2022/08/12 14:30:38;;;;;;;1.63;1.53;;;;;;;;;;5094784;28;20476;-77
2022/08/12 14:33:05;;;;;;;6.13;1.73;;;;;;;;;;5094023;28;20443;-78
2022/08/12 14:35:32;;;;;;;3.30;1.90;;;;;;;;;;5092785;28;20459;-77
2022/08/12 14:37:59;;;;;;;1.70;1.60;;;;;;;;;;5110584;28;20458;-77
2022/08/12 14:40:28;;;;;;;1.60;1.50;;;;;;;;;;5108687;28;20484;-78
2022/08/12 14:42:55;;;;;;;1.70;1.60;;;;;;;;;;5093388;28;20474;-78
2022/08/12 14:45:23;;;;;;;2.40;1.60;;;;;;;;;;5094551;28;20525;-78
2022/08/12 14:47:53;;;;;;;2.57;1.70;;;;;;;;;;5096124;28;20470;-79
2022/08/12 14:50:20;;;;;;;3.37;1.63;;;;;;;;;;5094922;28;20936;-78
2022/08/12 14:52:49;;;;;;;1.60;1.50;;;;;;;;;;5093189;28;20521;-77
2022/08/12 14:55:16;;;;;;;1.60;1.50;;;;;;;;;;5090879;28;20468;-77
2022/08/12 14:57:54;;;;;;;2.00;1.90;;;;;;;;;;5091720;28;20440;-76
2022/08/12 15:03:07;;;;;;;2.40;1.53;;;;;;;;;;5091589;28;20508;-78
2022/08/12 15:05:37;;;;;;;1.73;1.57;;;;;;;;;;5091820;28;20472;-78
2022/08/12 15:08:10;;;;;;;4.77;1.47;;;;;;;;;;5092094;28;21038;-77
2022/08/12 15:10:38;;;;;;;1.77;1.67;;;;;;;;;;5092457;28;20469;-78
2022/08/12 15:13:08;;;;;;;2.83;1.80;;;;;;;;;;5092010;28;20464;-78
2022/08/12 15:15:37;;;;;;;2.33;1.47;;;;;;;;;;5092449;28;20466;-77
2022/08/12 15:18:04;;;;;;;3.63;1.60;;;;;;;;;;5092890;28;20485;-77
2022/08/12 15:20:31;;;;;;;4.60;1.87;;;;;;;;;;5091713;28;20536;-78
2022/08/12 15:22:58;;;;;;;1.60;1.50;;;;;;;;;;5091721;28;20856;-78
2022/08/12 15:25:25;;;;;;;1.30;1.30;;;;;;;;;;5092524;28;20520;-78
2022/08/12 15:27:52;;;;;;;1.80;1.60;;;;;;;;;;5091785;28;20976;-77
2022/08/12 15:30:21;;;;;;;2.00;1.80;;;;;;;;;;5091649;28;20444;-78
2022/08/12 15:32:49;;;;;;;2.33;1.40;;;;;;;;;;5091635;28;20509;-76
2022/08/12 15:35:16;;;;;;;1.40;1.30;;;;;;;;;;5091020;28;20524;-78
2022/08/12 15:37:43;;;;;;;1.87;1.30;;;;;;;;;;5092230;28;20439;-77
2022/08/12 15:40:12;;;;;;;2.80;1.80;;;;;;;;;;5092134;28;20529;-78
2022/08/12 15:42:39;;;;;;;2.67;1.40;;;;;;;;;;5091681;28;20543;-77
2022/08/12 15:45:07;;;;;;;3.90;1.60;;;;;;;;;;5091917;28;20533;-78
2022/08/12 15:47:35;;;;;;;1.40;1.30;;;;;;;;;;5091989;28;20502;-78
2022/08/12 15:50:02;;;;;;;1.40;1.30;;;;;;;;;;5091898;28;20435;-79
2022/08/12 15:52:29;;;;;;;1.77;1.40;;;;;;;;;;5091384;28;20435;-78
2022/08/12 15:54:58;;;;;;;1.70;1.60;;;;;;;;;;5091405;28;20467;-78
2022/08/12 15:57:25;;;;;;;1.97;1.40;;;;;;;;;;5091640;28;20440;-79
2022/08/12 15:59:52;;;;;;;1.60;1.30;;;;;;;;;;5091937;28;20479;-78
2022/08/12 16:02:19;;;;;;;2.10;1.47;;;;;;;;;;5092105;28;20452;-77
2022/08/12 16:04:50;;;;;;;2.13;1.80;;;;;;;;;;5091775;28;20990;-78
2022/08/12 16:07:22;;;;;;;1.50;1.40;;;;;;;;;;5091836;28;20804;-77
2022/08/12 16:09:49;;;;;;;1.80;1.50;;;;;;;;;;5091354;28;20412;-77
2022/08/12 16:12:16;;;;;;;1.50;1.40;;;;;;;;;;5090997;28;20440;-77
2022/08/12 16:14:43;;;;;;;1.53;1.43;;;;;;;;;;5090822;28;20521;-78
2022/08/12 16:17:10;;;;;;;1.83;1.73;;;;;;;;;;5091153;28;20443;-77
2022/08/12 16:19:40;;;;;;;1.30;1.30;;;;;;;;;;5090676;28;20486;-76
2022/08/12 16:22:09;;;;;;;1.87;1.63;;;;;;;;;;5090853;28;20986;-78
2022/08/12 16:24:43;;;;;;;1.80;1.70;;;;;;;;;;5090864;28;20463;-76
2022/08/12 16:27:10;;;;;;;1.53;1.47;;;;;;;;;;5091152;28;20445;-77
2022/08/12 16:29:39;;;;;;;3.10;1.80;;;;;;;;;;5090902;28;21063;-76
2022/08/12 16:32:06;;;;;;;1.77;1.40;;;;;;;;;;5090423;28;20954;-76
2022/08/12 16:34:35;;;;;;;1.90;1.70;;;;;;;;;;5089882;28;20509;-77
2022/08/12 16:37:03;;;;;;;2.30;1.87;;;;;;;;;;5090620;28;20942;-77
2022/08/12 16:39:34;;;;;;;2.00;1.60;;;;;;;;;;5090631;28;20484;-77
2022/08/12 16:42:01;;;;;;;2.30;1.90;;;;;;;;;;5090285;28;20456;-77
2022/08/12 16:44:30;;;;;;;4.07;1.87;;;;;;;;;;5090481;28;20448;-78
2022/08/12 16:46:58;;;;;;;3.93;2.03;;;;;;;;;;5090575;28;20454;-77